createdAt,value
2023-01-21T00:01:54.612Z,97500.72
2023-01-21T00:04:21.125Z,97499.91
2023-01-21T00:06:47.686Z,97491.28
2023-01-21T00:09:15.014Z,97494.19
2023-01-21T00:11:41.453Z,97516.13
2023-01-21T00:14:08.046Z,97505.50
2023-01-21T00:16:34.487Z,97496.38
2023-01-21T00:19:00.965Z,97503.31
2023-01-21T00:21:27.429Z,97515.59
2023-01-21T00:23:54.024Z,97525.72
2023-01-21T00:26:21.991Z,97519.84
2023-01-21T00:28:48.476Z,97527.28
2023-01-21T00:31:16.991Z,97533.94
2023-01-21T00:33:43.551Z,97526.72
2023-01-21T00:36:10.815Z,97522.38
2023-01-21T00:38:37.335Z,97525.63
2023-01-21T00:41:08.602Z,97540.03
2023-01-21T00:43:35.589Z,97534.16
2023-01-21T00:46:04.079Z,97552.03
2023-01-21T00:48:30.598Z,97571.19
2023-01-21T00:51:00.566Z,97573.06
2023-01-21T00:53:27.892Z,97582.59
2023-01-21T00:55:54.428Z,97593.25
2023-01-21T00:58:20.898Z,97602.50
2023-01-21T01:00:47.441Z,97612.31
2023-01-21T01:03:13.943Z,97625.56
2023-01-21T01:05:40.593Z,97626.63
2023-01-21T01:08:07.077Z,97643.28
2023-01-21T01:10:35.591Z,97652.56
2023-01-21T01:13:02.136Z,97659.97
2023-01-21T01:15:28.582Z,97658.69
2023-01-21T01:17:55.168Z,97655.81
2023-01-21T01:20:21.665Z,97648.97
2023-01-21T01:22:48.128Z,97645.78
2023-01-21T01:25:14.628Z,97656.38
2023-01-21T01:27:41.831Z,97651.34
2023-01-21T01:30:08.445Z,97642.09
2023-01-21T01:32:34.908Z,97666.47
2023-01-21T01:35:01.415Z,97656.41
2023-01-21T01:37:27.849Z,97662.25
2023-01-21T01:39:54.323Z,97678.34
2023-01-21T01:42:23.334Z,97682.31
2023-01-21T01:44:57.344Z,97685.56
2023-01-21T01:47:28.928Z,97652.44
2023-01-21T01:49:55.955Z,97657.22
2023-01-21T01:52:22.857Z,97676.84
2023-01-21T01:54:51.770Z,97699.88
2023-01-21T01:57:20.574Z,97711.25
2023-01-21T01:59:49.436Z,97721.56
2023-01-21T02:02:18.055Z,97711.81
2023-01-21T02:04:47.425Z,97718.44
2023-01-21T02:07:14.712Z,97718.19
2023-01-21T02:09:41.173Z,97719.78
2023-01-21T02:12:09.975Z,97715.53
2023-01-21T02:14:42.817Z,97732.16
2023-01-21T02:17:12.051Z,97731.63
2023-01-21T02:19:46.813Z,97724.78
2023-01-21T02:22:16.051Z,97731.19
2023-01-21T02:25:01.571Z,97748.28
2023-01-21T02:27:43.543Z,97755.91
2023-01-21T02:30:17.177Z,97771.41
2023-01-21T02:33:13.632Z,97771.19
2023-01-21T02:35:40.067Z,97769.13
2023-01-21T02:38:18.122Z,97787.00
2023-01-21T02:40:57.310Z,97797.44
2023-01-21T02:43:38.308Z,97807.97
2023-01-21T02:46:09.527Z,97816.72
2023-01-21T02:48:40.095Z,97801.00
2023-01-21T02:51:06.686Z,97796.69
2023-01-21T02:53:34.150Z,97805.00
2023-01-21T02:56:12.925Z,97810.22
2023-01-21T02:58:42.018Z,97805.19
2023-01-21T03:01:08.523Z,97802.03
2023-01-21T03:03:41.561Z,97834.03
2023-01-21T03:06:28.451Z,97835.69
2023-01-21T03:09:20.999Z,97837.28
2023-01-21T03:11:58.553Z,97830.50
2023-01-21T03:14:57.815Z,97832.09
2023-01-21T03:17:32.344Z,97837.34
2023-01-21T03:20:11.065Z,97859.72
2023-01-21T03:22:38.902Z,97869.56
2023-01-21T03:25:06.624Z,97882.50
2023-01-21T03:27:34.360Z,97871.16
2023-01-21T03:30:03.888Z,97881.28
2023-01-21T03:32:32.907Z,97919.94
2023-01-21T03:35:01.723Z,97942.34
2023-01-21T03:37:33.932Z,97960.19
2023-01-21T03:40:06.985Z,97986.88
2023-01-21T03:42:33.646Z,98007.22
2023-01-21T03:45:00.296Z,98020.88
2023-01-21T03:47:31.827Z,97984.44
2023-01-21T03:49:58.431Z,97956.63
2023-01-21T03:52:26.029Z,97940.91
2023-01-21T03:54:52.671Z,97950.78
2023-01-21T03:57:19.291Z,97940.09
2023-01-21T03:59:45.843Z,97958.25
2023-01-21T04:02:12.462Z,97996.31
2023-01-21T04:04:38.920Z,98013.84
2023-01-21T04:07:05.384Z,98036.03
2023-01-21T04:09:31.851Z,98060.75
2023-01-21T04:12:00.397Z,98026.00
2023-01-21T04:14:26.952Z,98001.41
2023-01-21T04:16:53.453Z,97990.09
2023-01-21T04:19:19.930Z,97978.88
2023-01-21T04:21:46.417Z,97996.31
2023-01-21T04:24:12.977Z,98037.63
2023-01-21T04:26:41.076Z,98076.44
2023-01-21T04:29:07.602Z,98097.03
2023-01-21T04:31:34.102Z,98107.94
2023-01-21T04:34:00.639Z,98125.16
2023-01-21T04:36:27.444Z,98148.34
2023-01-21T04:38:53.980Z,98148.25
2023-01-21T04:41:25.149Z,98114.50
2023-01-21T04:43:54.191Z,98142.69
2023-01-21T04:46:20.717Z,98140.75
2023-01-21T04:48:47.176Z,98144.03
2023-01-21T04:51:13.737Z,98140.63
2023-01-21T04:53:40.377Z,98135.03
2023-01-21T04:56:06.951Z,98126.06
2023-01-21T04:58:33.551Z,98119.44
2023-01-21T05:01:00.118Z,98118.38
2023-01-21T05:03:27.844Z,98145.13
2023-01-21T05:05:54.459Z,98178.69
2023-01-21T05:08:20.942Z,98203.13
2023-01-21T05:10:47.379Z,98222.53
2023-01-21T05:13:16.032Z,98228.47
2023-01-21T05:15:44.399Z,98229.94
2023-01-21T05:18:10.883Z,98228.91
2023-01-21T05:20:37.361Z,98238.28
2023-01-21T05:23:03.887Z,98252.09
2023-01-21T05:25:30.409Z,98256.13
2023-01-21T05:27:56.919Z,98257.03
2023-01-21T05:30:24.132Z,98240.72
2023-01-21T05:32:51.560Z,98235.69
2023-01-21T05:35:20.151Z,98273.91
2023-01-21T05:37:47.874Z,98245.53
2023-01-21T05:40:18.020Z,98269.16
2023-01-21T05:42:44.648Z,98346.03
2023-01-21T05:45:11.849Z,98387.72
2023-01-21T05:47:38.315Z,98393.19
2023-01-21T05:50:05.043Z,98416.09
2023-01-21T05:52:31.481Z,98432.50
2023-01-21T05:55:02.274Z,98412.22
2023-01-21T05:57:29.183Z,98413.88
2023-01-21T05:59:55.662Z,98331.66
2023-01-21T06:02:22.434Z,98308.34
2023-01-21T06:04:48.970Z,98337.72
2023-01-21T06:07:15.486Z,98363.19
2023-01-21T06:09:41.939Z,98378.84
2023-01-21T06:12:08.476Z,98409.84
2023-01-21T06:14:34.924Z,98431.31
2023-01-21T06:17:01.388Z,98399.69
2023-01-21T06:19:27.880Z,98365.03
2023-01-21T06:21:54.347Z,98396.44
2023-01-21T06:24:20.789Z,98389.28
2023-01-21T06:26:47.294Z,98372.34
2023-01-21T06:29:14.485Z,98395.19
2023-01-21T06:31:41.326Z,98388.22
2023-01-21T06:34:12.869Z,98345.41
2023-01-21T06:36:40.953Z,98322.31
2023-01-21T06:39:07.439Z,98333.72
2023-01-21T06:41:34.870Z,98317.09
2023-01-21T06:44:01.333Z,98307.59
2023-01-21T06:46:27.891Z,98336.41
2023-01-21T06:48:54.489Z,98364.69
2023-01-21T06:51:21.636Z,98393.19
2023-01-21T06:53:48.116Z,98407.75
2023-01-21T06:56:14.559Z,98402.84
2023-01-21T06:58:41.028Z,98447.28
2023-01-21T07:01:07.492Z,98468.09
2023-01-21T07:03:33.984Z,98424.84
2023-01-21T07:06:00.467Z,98390.94
2023-01-21T07:08:27.009Z,98428.44
2023-01-21T07:10:53.447Z,98458.81
2023-01-21T07:13:19.945Z,98482.66
2023-01-21T07:15:46.462Z,98475.56
2023-01-21T07:18:12.929Z,98504.47
2023-01-21T07:20:40.931Z,98492.75
2023-01-21T07:23:07.481Z,98469.63
2023-01-21T07:25:36.153Z,98507.31
2023-01-21T07:28:03.295Z,98517.19
2023-01-21T07:30:29.767Z,98466.75
2023-01-21T07:32:56.206Z,98449.34
2023-01-21T07:35:22.723Z,98490.69
2023-01-21T07:37:49.315Z,98517.19
2023-01-21T07:40:15.856Z,98530.34
2023-01-21T07:42:42.308Z,98546.50
2023-01-21T07:45:08.973Z,98546.09
2023-01-21T07:47:35.769Z,98562.69
2023-01-21T07:50:05.107Z,98575.63
2023-01-21T07:52:32.000Z,98585.91
2023-01-21T07:54:58.500Z,98597.22
2023-01-21T07:57:27.285Z,98569.94
2023-01-21T07:59:53.791Z,98574.38
2023-01-21T08:02:20.381Z,98567.88
2023-01-21T08:04:47.525Z,98591.75
2023-01-21T08:07:13.998Z,98616.06
2023-01-21T08:09:42.701Z,98631.00
2023-01-21T08:12:09.693Z,98633.03
2023-01-21T08:14:38.531Z,98649.19
2023-01-21T08:17:05.041Z,98687.69
2023-01-21T08:19:31.492Z,98697.56
2023-01-21T08:21:57.996Z,98740.16
2023-01-21T08:24:24.447Z,98764.34
2023-01-21T08:26:50.999Z,98759.28
2023-01-21T08:29:17.474Z,98750.41
2023-01-21T08:31:44.035Z,98732.44
2023-01-21T08:34:10.553Z,98660.53
2023-01-21T08:36:39.009Z,98622.31
2023-01-21T08:39:08.528Z,98632.00
2023-01-21T08:41:35.099Z,98616.84
2023-01-21T08:44:01.602Z,98591.75
2023-01-21T08:46:28.143Z,98586.91
2023-01-21T08:48:54.626Z,98558.84
2023-01-21T08:51:21.120Z,98524.69
2023-01-21T08:53:48.787Z,98544.41
2023-01-21T08:56:15.336Z,98543.81
2023-01-21T08:58:41.870Z,98520.81
2023-01-21T09:01:09.824Z,98491.59
2023-01-21T09:03:36.488Z,98474.09
2023-01-21T09:06:04.080Z,98450.00
2023-01-21T09:08:30.672Z,98471.41
2023-01-21T09:11:03.993Z,98533.75
2023-01-21T09:13:31.604Z,98541.00
2023-01-21T09:15:58.187Z,98500.63
2023-01-21T09:18:24.849Z,98458.47
2023-01-21T09:20:51.480Z,98446.78
2023-01-21T09:23:27.647Z,98446.38
2023-01-21T09:25:54.095Z,98457.47
2023-01-21T09:28:21.241Z,98452.19
2023-01-21T09:30:48.629Z,98471.44
2023-01-21T09:33:15.574Z,98507.94
2023-01-21T09:35:42.067Z,98538.44
2023-01-21T09:38:08.572Z,98547.81
2023-01-21T09:40:35.448Z,98549.56
2023-01-21T09:43:09.591Z,98525.47
2023-01-21T09:45:36.478Z,98458.59
2023-01-21T09:48:04.119Z,98472.84
2023-01-21T09:50:32.011Z,98481.63
2023-01-21T09:53:07.842Z,98466.94
2023-01-21T09:55:34.253Z,98461.06
2023-01-21T09:58:12.021Z,98464.13
2023-01-21T10:00:50.709Z,98449.50
2023-01-21T10:03:21.611Z,98451.94
2023-01-21T10:06:17.332Z,98437.88
2023-01-21T10:08:43.778Z,98425.03
2023-01-21T10:11:35.299Z,98409.41
2023-01-21T10:14:20.695Z,98389.75
2023-01-21T10:17:03.960Z,98377.44
2023-01-21T10:19:33.653Z,98374.56
2023-01-21T10:22:08.811Z,98362.38
2023-01-21T10:24:38.828Z,98356.69
2023-01-21T10:27:11.383Z,98327.03
2023-01-21T10:29:41.670Z,98308.56
2023-01-21T10:32:13.380Z,98311.38
2023-01-21T10:34:45.089Z,98324.34
2023-01-21T10:37:17.824Z,98375.78
2023-01-21T10:40:07.569Z,98399.03
2023-01-21T10:43:06.568Z,98395.84
2023-01-21T10:45:35.872Z,98388.88
2023-01-21T10:48:21.211Z,98372.75
2023-01-21T10:50:52.421Z,98350.97
2023-01-21T10:53:29.025Z,98377.09
2023-01-21T10:56:14.260Z,98402.22
2023-01-21T10:58:46.882Z,98409.56
2023-01-21T11:01:20.853Z,98411.66
2023-01-21T11:03:50.841Z,98381.78
2023-01-21T11:06:18.591Z,98373.22
2023-01-21T11:08:48.720Z,98374.94
2023-01-21T11:11:19.181Z,98345.66
2023-01-21T11:13:47.696Z,98340.16
2023-01-21T11:16:15.202Z,98331.63
2023-01-21T11:18:44.058Z,98349.16
2023-01-21T11:21:23.595Z,98357.19
2023-01-21T11:23:57.108Z,98381.88
2023-01-21T11:26:31.821Z,98376.78
2023-01-21T11:29:07.231Z,98397.13
2023-01-21T11:31:33.995Z,98405.41
2023-01-21T11:34:07.835Z,98405.16
2023-01-21T11:36:34.483Z,98434.09
2023-01-21T11:39:02.324Z,98459.81
2023-01-21T11:41:28.974Z,98473.41
2023-01-21T11:44:07.094Z,98485.97
2023-01-21T11:46:36.794Z,98495.41
2023-01-21T11:49:09.115Z,98509.09
2023-01-21T11:51:36.757Z,98515.06
2023-01-21T11:54:12.264Z,98520.25
2023-01-21T11:56:40.072Z,98492.75
2023-01-21T11:59:35.840Z,98506.69
2023-01-21T12:02:05.330Z,98523.50
2023-01-21T12:04:32.605Z,98537.75
2023-01-21T12:07:00.559Z,98537.19
2023-01-21T12:09:28.888Z,98558.00
2023-01-21T12:12:04.516Z,98557.75
2023-01-21T12:14:35.354Z,98566.41
2023-01-21T12:17:22.013Z,98570.66
2023-01-21T12:19:51.909Z,98560.97
2023-01-21T12:22:31.645Z,98551.31
2023-01-21T12:25:04.124Z,98552.03
2023-01-21T12:27:33.973Z,98549.72
2023-01-21T12:30:07.433Z,98549.16
2023-01-21T12:32:38.474Z,98545.81
2023-01-21T12:35:31.299Z,98548.56
2023-01-21T12:38:05.046Z,98556.84
2023-01-21T12:40:37.035Z,98554.53
2023-01-21T12:43:08.441Z,98562.13
2023-01-21T12:45:41.507Z,98551.91
2023-01-21T12:48:15.809Z,98532.13
2023-01-21T12:50:57.882Z,98551.66
2023-01-21T12:53:38.672Z,98558.13
2023-01-21T12:56:05.528Z,98524.75
2023-01-21T12:58:38.153Z,98490.88
2023-01-21T13:01:07.817Z,98473.53
2023-01-21T13:03:53.204Z,98465.66
2023-01-21T13:06:37.929Z,98459.47
2023-01-21T13:09:30.118Z,98456.44
2023-01-21T13:12:11.325Z,98462.06
2023-01-21T13:14:40.387Z,98499.84
2023-01-21T13:17:14.395Z,98533.59
2023-01-21T13:19:40.854Z,98562.97
2023-01-21T13:22:22.320Z,98581.59
2023-01-21T13:24:54.800Z,98574.34
2023-01-21T13:27:21.279Z,98571.34
2023-01-21T13:29:48.769Z,98551.31
2023-01-21T13:32:18.496Z,98524.16
2023-01-21T13:34:53.837Z,98529.69
2023-01-21T13:37:37.386Z,98495.25
2023-01-21T13:40:22.430Z,98497.34
2023-01-21T13:42:54.980Z,98463.09
2023-01-21T13:45:39.719Z,98482.72
2023-01-21T13:48:06.261Z,98480.91
2023-01-21T13:50:48.905Z,98464.97
2023-01-21T13:53:27.426Z,98452.31
2023-01-21T13:56:06.116Z,98434.34
2023-01-21T13:58:34.275Z,98424.09
2023-01-21T14:01:07.988Z,98414.28
2023-01-21T14:03:34.491Z,98417.31
2023-01-21T14:06:08.384Z,98415.22
2023-01-21T14:08:37.688Z,98417.50
2023-01-21T14:11:15.170Z,98441.75
2023-01-21T14:13:50.841Z,98481.38
2023-01-21T14:16:29.651Z,98451.69
2023-01-21T14:19:10.148Z,98464.81
2023-01-21T14:21:51.841Z,98446.63
2023-01-21T14:24:26.783Z,98451.25
2023-01-21T14:26:57.078Z,98442.47
2023-01-21T14:29:32.647Z,98431.44
2023-01-21T14:32:02.226Z,98441.00
2023-01-21T14:34:41.232Z,98509.75
2023-01-21T14:37:11.943Z,98546.16
2023-01-21T14:39:41.260Z,98539.53
2023-01-21T14:42:09.410Z,98532.78
2023-01-21T14:44:38.017Z,98568.00
2023-01-21T14:47:39.972Z,98580.16
2023-01-21T14:50:07.604Z,98596.00
2023-01-21T14:52:46.564Z,98550.69
2023-01-21T14:55:42.520Z,98525.59
2023-01-21T14:58:26.632Z,98518.78
2023-01-21T15:00:53.946Z,98498.31
2023-01-21T15:03:27.161Z,98514.72
2023-01-21T15:06:02.290Z,98557.59
2023-01-21T15:08:45.435Z,98594.06
2023-01-21T15:11:32.530Z,98596.19
2023-01-21T15:14:07.484Z,98622.19
2023-01-21T15:16:35.306Z,98650.09
2023-01-21T15:19:08.047Z,98655.34
2023-01-21T15:21:43.597Z,98645.97
2023-01-21T15:24:19.475Z,98627.53
2023-01-21T15:27:04.143Z,98630.81
2023-01-21T15:29:37.897Z,98678.53
2023-01-21T15:32:23.104Z,98661.00
2023-01-21T15:34:51.540Z,98687.91
2023-01-21T15:37:20.913Z,98715.50
2023-01-21T15:39:48.876Z,98699.25
2023-01-21T15:42:22.414Z,98667.09
2023-01-21T15:44:57.824Z,98662.25
2023-01-21T15:47:30.351Z,98642.91
2023-01-21T15:50:06.204Z,98679.38
2023-01-21T15:52:42.108Z,98721.16
2023-01-21T15:55:26.812Z,98727.03
2023-01-21T15:58:12.040Z,98735.72
2023-01-21T16:00:47.749Z,98735.69
2023-01-21T16:03:49.850Z,98745.22
2023-01-21T16:06:23.109Z,98742.59
2023-01-21T16:09:13.496Z,98747.25
2023-01-21T16:11:40.675Z,98781.09
2023-01-21T16:14:19.292Z,98800.91
2023-01-21T16:16:56.676Z,98804.97
2023-01-21T16:19:26.471Z,98787.56
2023-01-21T16:21:56.619Z,98784.31
2023-01-21T16:24:26.145Z,98809.03
2023-01-21T16:26:52.648Z,98808.63
2023-01-21T16:29:19.932Z,98837.97
2023-01-21T16:31:47.054Z,98847.06
2023-01-21T16:34:14.132Z,98859.63
2023-01-21T16:36:40.878Z,98848.28
2023-01-21T16:39:09.037Z,98846.47
2023-01-21T16:41:35.797Z,98874.56
2023-01-21T16:44:04.492Z,98887.72
2023-01-21T16:46:37.515Z,98887.09
2023-01-21T16:49:06.139Z,98883.28
2023-01-21T16:51:36.479Z,98874.56
2023-01-21T16:54:35.923Z,98919.97
2023-01-21T16:57:03.876Z,98946.59
2023-01-21T16:59:40.929Z,98945.75
2023-01-21T17:02:27.122Z,98936.94
2023-01-21T17:04:57.872Z,98897.91
2023-01-21T17:07:31.690Z,98865.84
2023-01-21T17:10:04.519Z,98828.63
2023-01-21T17:12:33.627Z,98872.75
2023-01-21T17:15:02.711Z,98851.03
2023-01-21T17:17:31.925Z,98849.38
2023-01-21T17:19:58.610Z,98881.16
2023-01-21T17:22:26.629Z,98906.28
2023-01-21T17:25:22.369Z,98923.91
2023-01-21T17:27:49.648Z,98886.72
2023-01-21T17:30:18.811Z,98895.53
2023-01-21T17:32:52.467Z,98886.09
2023-01-21T17:35:23.001Z,98905.91
2023-01-21T17:37:49.795Z,98935.31
2023-01-21T17:40:26.756Z,98914.03
2023-01-21T17:42:53.711Z,98868.22
2023-01-21T17:45:28.553Z,98901.91
2023-01-21T17:48:08.265Z,98903.28
2023-01-21T17:50:36.252Z,98933.03
2023-01-21T17:53:04.283Z,98923.19
2023-01-21T17:55:32.591Z,98949.19
2023-01-21T17:58:04.488Z,98971.88
2023-01-21T18:00:31.025Z,98990.38
2023-01-21T18:02:57.800Z,98961.84
2023-01-21T18:05:24.316Z,98973.19
2023-01-21T18:07:50.841Z,98998.91
2023-01-21T18:10:18.760Z,98993.13
2023-01-21T18:12:45.324Z,98995.38
2023-01-21T18:15:15.402Z,98950.06
2023-01-21T18:17:47.015Z,98945.94
2023-01-21T18:20:17.888Z,98946.06
2023-01-21T18:22:45.088Z,98903.66
2023-01-21T18:25:12.915Z,98872.50
2023-01-21T18:27:40.949Z,98897.16
2023-01-21T18:30:26.872Z,98920.75
2023-01-21T18:32:53.722Z,98959.06
2023-01-21T18:35:25.789Z,99007.28
2023-01-21T18:37:54.536Z,99025.94
2023-01-21T18:40:22.557Z,99039.75
2023-01-21T18:42:53.012Z,99064.16
2023-01-21T18:45:20.918Z,99060.38
2023-01-21T18:47:48.653Z,99075.47
2023-01-21T18:50:19.693Z,99068.59
2023-01-21T18:52:46.181Z,99071.13
2023-01-21T18:55:15.934Z,99071.38
2023-01-21T18:57:44.123Z,99087.22
2023-01-21T19:00:14.854Z,99060.81
2023-01-21T19:02:41.359Z,99064.06
2023-01-21T19:05:07.967Z,99068.59
2023-01-21T19:07:34.481Z,99077.91
2023-01-21T19:10:00.996Z,99080.53
2023-01-21T19:12:27.537Z,99068.59
2023-01-21T19:14:54.068Z,99105.38
2023-01-21T19:17:28.527Z,99138.41
2023-01-21T19:19:55.444Z,99090.19
2023-01-21T19:22:22.229Z,99080.28
2023-01-21T19:24:49.218Z,99058.75
2023-01-21T19:27:33.913Z,99096.44
2023-01-21T19:30:01.120Z,99096.19
2023-01-21T19:32:27.695Z,99044.16
2023-01-21T19:34:55.798Z,99011.41
2023-01-21T19:37:23.520Z,99081.44
2023-01-21T19:39:52.044Z,99095.97
2023-01-21T19:42:18.489Z,99111.66
2023-01-21T19:44:47.133Z,99103.53
2023-01-21T19:47:23.793Z,99118.50
2023-01-21T19:49:50.827Z,99161.34
2023-01-21T19:52:17.286Z,99126.47
2023-01-21T19:54:43.844Z,99072.84
2023-01-21T19:57:14.468Z,99079.25
2023-01-21T19:59:41.902Z,99086.06
2023-01-21T20:02:09.866Z,99101.00
2023-01-21T20:04:36.621Z,99118.50
2023-01-21T20:07:03.282Z,99132.00
2023-01-21T20:09:29.776Z,99139.63
2023-01-21T20:11:56.424Z,99101.22
2023-01-21T20:14:22.940Z,99052.94
2023-01-21T20:16:51.248Z,99093.44
2023-01-21T20:19:20.171Z,99136.69
2023-01-21T20:22:00.445Z,99150.53
2023-01-21T20:24:30.222Z,99179.81
2023-01-21T20:26:58.444Z,99197.16
2023-01-21T20:29:26.981Z,99210.81
2023-01-21T20:31:54.538Z,99193.22
2023-01-21T20:34:21.151Z,99157.38
2023-01-21T20:36:49.641Z,99172.75
2023-01-21T20:39:16.255Z,99170.31
2023-01-21T20:41:43.465Z,99187.84
2023-01-21T20:44:10.452Z,99208.03
2023-01-21T20:46:37.094Z,99192.25
2023-01-21T20:49:03.591Z,99190.31
2023-01-21T20:51:30.243Z,99199.66
2023-01-21T20:53:56.719Z,99200.81
2023-01-21T20:56:30.794Z,99204.19
2023-01-21T20:58:57.564Z,99159.09
2023-01-21T21:01:25.106Z,99096.88
2023-01-21T21:03:52.147Z,99061.16
2023-01-21T21:06:20.409Z,99095.31
2023-01-21T21:08:47.686Z,99113.81
2023-01-21T21:11:15.104Z,99149.81
2023-01-21T21:13:41.933Z,99188.56
2023-01-21T21:16:18.807Z,99199.22
2023-01-21T21:18:45.685Z,99200.06
2023-01-21T21:21:12.672Z,99159.00
2023-01-21T21:23:39.237Z,99140.81
2023-01-21T21:26:12.775Z,99175.88
2023-01-21T21:28:39.856Z,99193.13
2023-01-21T21:31:08.180Z,99209.50
2023-01-21T21:33:36.518Z,99213.25
2023-01-21T21:36:05.079Z,99230.44
2023-01-21T21:38:31.517Z,99248.47
2023-01-21T21:41:17.941Z,99206.22
2023-01-21T21:43:44.379Z,99212.47
2023-01-21T21:46:31.445Z,99187.16
2023-01-21T21:48:58.011Z,99205.22
2023-01-21T21:51:24.652Z,99209.53
2023-01-21T21:53:51.388Z,99230.47
2023-01-21T21:56:19.822Z,99256.28
2023-01-21T21:58:46.864Z,99239.13
2023-01-21T22:01:23.559Z,99228.44
2023-01-21T22:03:50.747Z,99224.66
2023-01-21T22:06:18.216Z,99229.22
2023-01-21T22:08:44.738Z,99234.88
2023-01-21T22:11:15.761Z,99278.28
2023-01-21T22:13:43.540Z,99288.78
2023-01-21T22:16:12.050Z,99274.41
2023-01-21T22:18:38.784Z,99190.22
2023-01-21T22:21:06.643Z,99137.84
2023-01-21T22:23:36.239Z,99180.78
2023-01-21T22:26:05.304Z,99209.16
2023-01-21T22:28:33.452Z,99234.22
2023-01-21T22:31:04.187Z,99242.28
2023-01-21T22:33:31.382Z,99252.66
2023-01-21T22:35:57.994Z,99301.59
2023-01-21T22:38:24.539Z,99282.28
2023-01-21T22:40:54.296Z,99295.06
2023-01-21T22:43:23.722Z,99326.44
2023-01-21T22:45:51.860Z,99285.59
2023-01-21T22:48:18.358Z,99330.97
2023-01-21T22:50:46.759Z,99308.13
2023-01-21T22:53:13.489Z,99243.16
2023-01-21T22:55:39.999Z,99224.63
2023-01-21T22:58:08.460Z,99227.88
2023-01-21T23:00:39.195Z,99244.97
2023-01-21T23:03:06.256Z,99224.91
2023-01-21T23:05:33.205Z,99173.91
2023-01-21T23:10:26.200Z,99242.34
2023-01-21T23:12:52.731Z,99287.72
2023-01-21T23:15:19.284Z,99325.59
2023-01-21T23:17:45.782Z,99319.09
2023-01-21T23:20:12.308Z,99285.41
2023-01-21T23:22:39.088Z,99323.16
2023-01-21T23:25:06.101Z,99342.59
2023-01-21T23:27:33.182Z,99374.88
2023-01-21T23:30:00.372Z,99354.19
2023-01-21T23:32:28.571Z,99305.16
2023-01-21T23:34:56.965Z,99233.38
2023-01-21T23:37:23.450Z,99190.25
2023-01-21T23:39:52.164Z,99164.94
2023-01-21T23:42:19.449Z,99234.34
2023-01-21T23:44:45.981Z,99247.22
2023-01-21T23:47:12.416Z,99210.34
2023-01-21T23:49:38.942Z,99213.34
2023-01-21T23:52:06.550Z,99287.19
2023-01-21T23:54:33.041Z,99316.28
2023-01-21T23:56:59.525Z,99339.84
2023-01-21T23:59:26.229Z,99341.78
